Time;durP1;ratioP1;P1;durP2;ratioP2;P2;SDS_P1;SDS_P2;PMS_P1;PMS_P2;Temp;Humidity;BMP_temperature;BMP_pressure;BME280_temperature;BME280_humidity;BME280_pressure;Samples;Min_cycle;Max_cycle;Signal;HPM_P1;HPM_P2
2022/05/02 00:02:15;;;;;;;13.40;6.83;;;;;;;8.62;84.46;96399.28;5076903;28;20204;-69
2022/05/02 00:04:41;;;;;;;14.23;7.33;;;;;;;8.62;84.99;96391.41;5076948;28;20203;-70
2022/05/02 00:07:08;;;;;;;13.83;7.43;;;;;;;8.55;86.33;96392.22;5077247;28;20286;-69
2022/05/02 00:09:35;;;;;;;18.47;7.40;;;;;;;8.83;86.34;96391.75;5077447;28;20585;-70
2022/05/02 00:12:02;;;;;;;12.13;6.47;;;;;;;8.14;85.45;96390.44;5076976;28;20223;-69
2022/05/02 00:14:28;;;;;;;9.93;5.97;;;;;;;8.40;83.53;96390.38;5076119;28;20204;-69
2022/05/02 00:16:55;;;;;;;12.27;6.30;;;;;;;8.48;82.99;96383.34;5077199;28;20196;-70
2022/05/02 00:19:21;;;;;;;13.70;6.73;;;;;;;8.50;85.54;96378.75;5077122;28;20707;-69
2022/05/02 00:21:48;;;;;;;11.07;6.17;;;;;;;8.49;85.25;96374.50;5076665;28;20206;-69
2022/05/02 00:24:14;;;;;;;12.17;6.50;;;;;;;8.43;84.48;96376.94;5074721;28;20200;-69
2022/05/02 00:26:42;;;;;;;15.47;6.87;;;;;;;8.71;83.70;96369.44;5076808;28;20207;-69
2022/05/02 00:29:09;;;;;;;13.53;6.23;;;;;;;8.54;84.05;96375.66;5077028;28;20219;-70
2022/05/02 00:31:35;;;;;;;12.67;6.40;;;;;;;8.32;82.46;96371.97;5076666;28;20228;-69
2022/05/02 00:34:02;;;;;;;9.93;5.70;;;;;;;8.18;81.58;96368.16;5076523;28;20212;-70
2022/05/02 00:36:28;;;;;;;11.50;6.57;;;;;;;8.31;82.69;96367.69;5076446;28;20211;-70
2022/05/02 00:38:55;;;;;;;12.00;6.07;;;;;;;8.39;83.06;96367.72;5076926;28;20578;-70
2022/05/02 00:41:22;;;;;;;15.77;6.90;;;;;;;8.30;85.29;96368.69;5077025;28;20196;-70
2022/05/02 00:43:50;;;;;;;13.23;7.00;;;;;;;8.51;86.29;96362.00;5076208;28;20202;-69
2022/05/02 00:46:18;;;;;;;13.50;6.43;;;;;;;8.46;84.34;96360.84;5076452;28;20282;-70
2022/05/02 00:48:45;;;;;;;8.93;5.37;;;;;;;8.29;83.03;96360.00;5077280;28;20223;-69
2022/05/02 00:51:11;;;;;;;11.07;6.10;;;;;;;8.28;81.71;96363.59;5076585;28;20742;-70
2022/05/02 00:53:39;;;;;;;15.10;6.20;;;;;;;8.23;82.22;96354.56;5075137;28;20215;-69
2022/05/02 00:56:06;;;;;;;11.50;6.40;;;;;;;8.00;84.92;96361.34;5077380;28;20203;-70
2022/05/02 00:58:35;;;;;;;12.80;6.40;;;;;;;8.08;84.46;96356.94;5075635;28;20204;-69
2022/05/02 01:01:03;;;;;;;11.27;6.20;;;;;;;8.06;84.38;96355.47;5077473;28;20220;-69
2022/05/02 01:03:30;;;;;;;14.00;6.73;;;;;;;8.10;85.02;96354.16;5079845;28;20199;-69
2022/05/02 01:08:41;;;;;;;13.73;6.60;;;;;;;8.11;83.26;96345.31;5080385;28;20762;-69
2022/05/02 01:11:08;;;;;;;11.37;6.23;;;;;;;7.88;83.53;96339.81;5080667;28;20230;-69
2022/05/02 01:13:36;;;;;;;10.60;5.87;;;;;;;7.88;83.16;96349.50;5079662;28;20210;-69
2022/05/02 01:16:13;;;;;;;13.27;6.53;;;;;;;8.03;83.05;96345.25;5080146;28;20235;-69
2022/05/02 01:18:40;;;;;;;12.33;6.60;;;;;;;7.77;83.36;96341.91;5080307;28;20206;-69
2022/05/02 01:21:14;;;;;;;13.77;7.00;;;;;;;7.98;85.73;96337.88;5080165;28;20219;-70
2022/05/02 01:23:41;;;;;;;11.73;6.47;;;;;;;7.71;83.58;96346.94;5076428;28;20203;-69
2022/05/02 01:26:07;;;;;;;12.93;6.17;;;;;;;7.66;83.40;96334.31;5079862;28;20200;-69
2022/05/02 01:28:41;;;;;;;12.10;6.20;;;;;;;7.93;82.52;96334.91;5080396;28;20593;-69
2022/05/02 01:31:07;;;;;;;13.20;6.60;;;;;;;7.64;84.45;96325.78;5079526;28;20226;-69
2022/05/02 01:33:34;;;;;;;12.43;6.93;;;;;;;7.80;84.02;96319.78;5079708;28;20204;-69
2022/05/02 01:36:01;;;;;;;10.93;5.20;;;;;;;7.61;82.82;96315.59;5079646;28;20720;-69
2022/05/02 01:38:28;;;;;;;13.87;6.37;;;;;;;7.76;82.45;96323.69;5079856;28;20200;-69
2022/05/02 01:40:55;;;;;;;12.13;6.00;;;;;;;7.59;82.14;96325.41;5079737;28;20242;-69
2022/05/02 01:43:21;;;;;;;12.70;6.80;;;;;;;7.30;83.93;96332.78;5079186;28;20215;-69
2022/05/02 01:45:48;;;;;;;18.27;6.77;;;;;;;6.85;86.11;96327.91;5079763;28;20200;-69
2022/05/02 01:48:14;;;;;;;14.93;6.23;;;;;;;6.98;86.80;96336.19;5080088;28;20196;-69
2022/05/02 01:50:41;;;;;;;12.07;6.87;;;;;;;6.95;88.28;96332.06;5079379;28;20234;-69
2022/05/02 01:53:07;;;;;;;14.77;7.23;;;;;;;6.89;89.99;96326.63;5078563;28;20199;-69
2022/05/02 01:55:35;;;;;;;14.43;6.90;;;;;;;7.26;88.23;96323.59;5080346;28;20200;-69
2022/05/02 01:58:02;;;;;;;13.13;6.43;;;;;;;7.03;86.32;96316.41;5079159;28;20208;-69
2022/05/02 02:00:28;;;;;;;13.23;6.30;;;;;;;7.25;85.62;96315.09;5079056;28;20218;-70
2022/05/02 02:02:55;;;;;;;13.00;6.77;;;;;;;7.27;85.84;96316.56;5079042;28;20196;-69
2022/05/02 02:08:06;;;;;;;15.20;7.57;;;;;;;7.17;85.89;96309.81;5078820;28;20275;-69
2022/05/02 02:10:32;;;;;;;14.27;7.00;;;;;;;6.74;89.92;96312.44;5079148;28;20437;-69
2022/05/02 02:13:00;;;;;;;15.87;7.53;;;;;;;6.80;92.30;96311.81;5077867;28;20761;-69
2022/05/02 02:15:27;;;;;;;14.27;6.73;;;;;;;6.91;89.45;96304.53;5078871;28;20196;-69
2022/05/02 02:17:53;;;;;;;14.13;7.23;;;;;;;6.92;88.03;96302.75;5079118;28;20192;-69
2022/05/02 02:20:20;;;;;;;18.97;7.73;;;;;;;6.85;88.56;96305.16;5079160;28;20231;-69
2022/05/02 02:22:46;;;;;;;16.47;8.00;;;;;;;7.10;87.56;96304.31;5074875;28;20195;-69
2022/05/02 02:25:13;;;;;;;20.43;8.47;;;;;;;7.29;87.29;96304.97;5078668;28;20200;-70
2022/05/02 02:27:40;;;;;;;15.97;7.50;;;;;;;7.13;87.05;96297.97;5078761;28;20203;-69
2022/05/02 02:30:09;;;;;;;14.87;6.60;;;;;;;7.13;85.17;96295.34;5078847;28;20227;-69
2022/05/02 02:32:36;;;;;;;18.17;8.23;;;;;;;7.02;85.87;96298.22;5074417;28;20216;-69
2022/05/02 02:35:03;;;;;;;16.03;7.97;;;;;;;7.06;87.63;96307.41;5078728;28;21047;-69
2022/05/02 02:37:29;;;;;;;17.93;7.50;;;;;;;7.08;88.29;96295.00;5078578;28;20199;-69
2022/05/02 02:39:55;;;;;;;15.20;7.90;;;;;;;6.93;88.80;96293.91;5078230;28;20226;-70
2022/05/02 02:42:23;;;;;;;12.67;6.63;;;;;;;6.90;86.13;96296.84;5078180;28;20537;-69
2022/05/02 02:44:50;;;;;;;13.57;7.00;;;;;;;6.66;87.70;96294.03;5078162;28;20287;-69
2022/05/02 02:47:18;;;;;;;15.70;7.37;;;;;;;7.01;88.00;96292.16;5078103;28;20204;-69
2022/05/02 02:49:44;;;;;;;16.13;8.23;;;;;;;6.78;87.34;96298.06;5078265;28;20242;-69
2022/05/02 02:52:11;;;;;;;15.53;7.30;;;;;;;6.67;87.64;96291.28;5077761;28;20223;-70
2022/05/02 02:54:37;;;;;;;14.30;7.47;;;;;;;6.77;87.87;96293.78;5077712;28;20207;-69
2022/05/02 02:57:05;;;;;;;14.93;7.67;;;;;;;6.78;87.43;96287.56;5078840;28;20573;-69
2022/05/02 02:59:31;;;;;;;14.57;7.70;;;;;;;6.49;87.09;96289.66;5078175;28;20223;-69
2022/05/02 03:01:58;;;;;;;17.57;8.10;;;;;;;6.73;86.67;96284.59;5078291;28;20196;-69
2022/05/02 03:07:11;;;;;;;17.77;9.13;;;;;;;6.96;86.94;96277.88;5078592;28;20214;-69
2022/05/02 03:09:38;;;;;;;17.80;8.57;;;;;;;6.89;87.55;96282.09;5077498;28;20587;-69
2022/05/02 03:12:05;;;;;;;18.00;8.57;;;;;;;6.92;88.58;96273.94;5079018;28;20219;-69
2022/05/02 03:14:31;;;;;;;17.47;8.50;;;;;;;6.96;88.19;96280.50;5077861;28;20204;-70
2022/05/02 03:16:58;;;;;;;17.03;8.37;;;;;;;7.11;85.46;96281.59;5077686;28;20212;-69
2022/05/02 03:19:26;;;;;;;20.00;9.70;;;;;;;7.14;87.27;96271.63;5077895;28;20242;-70
2022/05/02 03:21:52;;;;;;;16.83;7.13;;;;;;;6.68;85.41;96278.97;5077010;28;20192;-69
2022/05/02 03:24:19;;;;;;;15.77;7.93;;;;;;;6.83;86.54;96272.22;5075992;28;20199;-70
2022/05/02 03:26:45;;;;;;;16.80;8.00;;;;;;;6.88;87.43;96283.06;5078242;28;20696;-69
2022/05/02 03:29:12;;;;;;;17.27;8.27;;;;;;;7.02;85.84;96272.03;5077387;28;20617;-69
2022/05/02 03:31:39;;;;;;;16.20;7.13;;;;;;;6.97;85.79;96275.09;5077458;28;20224;-69
2022/05/02 03:34:05;;;;;;;16.87;7.77;;;;;;;7.03;84.39;96281.53;5077000;28;20200;-69
2022/05/02 03:36:34;;;;;;;17.93;8.07;;;;;;;7.09;83.77;96279.13;5078198;28;20596;-70
2022/05/02 03:39:00;;;;;;;13.67;7.50;;;;;;;6.78;84.99;96277.09;5077023;28;20291;-69
2022/05/02 03:41:27;;;;;;;14.60;8.13;;;;;;;6.78;85.13;96282.34;5077788;28;20211;-69
2022/05/02 03:43:53;;;;;;;13.57;7.60;;;;;;;6.66;85.87;96284.38;5076554;28;20204;-69
2022/05/02 03:46:19;;;;;;;17.63;7.93;;;;;;;6.70;85.29;96274.44;5077527;28;20200;-70
2022/05/02 03:48:46;;;;;;;14.50;7.13;;;;;;;6.65;85.05;96281.91;5077480;28;20200;-69
2022/05/02 03:51:12;;;;;;;15.10;7.10;;;;;;;6.74;84.88;96281.81;5076817;28;20786;-69
2022/05/02 03:53:41;;;;;;;13.07;7.23;;;;;;;6.99;84.11;96281.03;5076553;28;20272;-69
2022/05/02 03:56:08;;;;;;;14.53;7.40;;;;;;;6.64;84.35;96280.28;5077591;28;20196;-69
2022/05/02 03:58:35;;;;;;;11.60;6.33;;;;;;;6.77;83.58;96276.28;5077479;28;20226;-69
2022/05/02 04:01:02;;;;;;;14.00;7.23;;;;;;;6.75;83.96;96277.41;5077048;28;20223;-70
2022/05/02 04:03:28;;;;;;;14.07;7.23;;;;;;;6.71;83.28;96276.91;5076348;28;20192;-68
2022/05/02 04:05:55;;;;;;;13.57;6.97;;;;;;;6.68;83.93;96273.75;5076675;28;20686;-69
2022/05/02 04:08:21;;;;;;;13.60;7.20;;;;;;;6.68;83.10;96276.38;5077506;28;20200;-69
2022/05/02 04:10:49;;;;;;;14.77;7.47;;;;;;;6.75;82.66;96280.03;5076876;28;20216;-69
2022/05/02 04:13:16;;;;;;;10.30;5.97;;;;;;;6.50;82.36;96286.03;5076548;28;20582;-69
2022/05/02 04:15:42;;;;;;;13.47;6.67;;;;;;;6.41;84.26;96276.47;5076691;28;20199;-69
2022/05/02 04:18:09;;;;;;;14.83;7.27;;;;;;;6.62;84.74;96282.22;5077894;28;20204;-69
2022/05/02 04:20:36;;;;;;;16.23;7.00;;;;;;;6.56;83.46;96272.34;5076836;28;20224;-69
2022/05/02 04:23:02;;;;;;;15.20;7.77;;;;;;;6.49;84.66;96276.56;5074222;28;21068;-69
2022/05/02 04:25:29;;;;;;;15.47;7.60;;;;;;;6.58;84.23;96274.81;5076609;28;20199;-69
2022/05/02 04:27:57;;;;;;;15.47;7.73;;;;;;;6.83;85.28;96272.22;5077338;28;20204;-69
2022/05/02 04:30:23;;;;;;;15.80;7.93;;;;;;;6.77;85.37;96272.84;5077213;28;20228;-69
2022/05/02 04:32:50;;;;;;;13.43;7.87;;;;;;;6.75;85.72;96277.41;5076677;28;20215;-69
2022/05/02 04:35:16;;;;;;;16.60;8.47;;;;;;;6.75;85.92;96274.81;5075939;28;20746;-69
2022/05/02 04:37:43;;;;;;;17.93;8.67;;;;;;;6.61;85.32;96275.34;5080460;28;20199;-70
2022/05/02 04:40:10;;;;;;;21.87;8.40;;;;;;;6.74;84.51;96276.56;5081326;28;20223;-69
2022/05/02 04:42:38;;;;;;;18.73;8.73;;;;;;;7.02;85.97;96278.09;5080236;28;20286;-69
2022/05/02 04:45:07;;;;;;;17.60;8.00;;;;;;;6.74;87.29;96273.97;5081137;28;20212;-69
2022/05/02 04:47:33;;;;;;;14.07;6.87;;;;;;;6.49;86.14;96278.34;5080479;28;20196;-69
2022/05/02 04:49:59;;;;;;;15.03;7.30;;;;;;;6.61;86.15;96275.34;5080238;28;20228;-69
2022/05/02 04:52:26;;;;;;;19.03;8.53;;;;;;;6.91;87.12;96277.50;5079637;28;20219;-69
2022/05/02 04:54:52;;;;;;;17.97;8.50;;;;;;;6.87;88.00;96277.03;5080558;28;20602;-69
2022/05/02 04:57:19;;;;;;;16.30;7.67;;;;;;;6.63;87.33;96277.81;5080289;28;20204;-69
2022/05/02 04:59:45;;;;;;;14.13;7.30;;;;;;;6.85;86.25;96278.16;5080655;28;20219;-69
2022/05/02 05:02:13;;;;;;;17.57;7.60;;;;;;;7.10;85.69;96277.31;5079950;28;20207;-69
2022/05/02 05:04:40;;;;;;;13.93;7.43;;;;;;;6.78;87.22;96280.56;5080408;28;21172;-69
2022/05/02 05:07:06;;;;;;;15.40;7.63;;;;;;;7.05;87.85;96282.19;5080679;28;20203;-69
2022/05/02 05:09:32;;;;;;;16.80;7.80;;;;;;;7.21;87.62;96279.69;5080436;28;20223;-69
2022/05/02 05:12:08;;;;;;;25.17;9.00;;;;;;;7.49;88.17;96274.91;5080584;28;20234;-69
2022/05/02 05:17:43;;;;;;;16.63;7.87;;;;;;;7.54;88.53;96267.38;5080260;28;20208;-69
2022/05/02 05:20:20;;;;;;;24.60;9.37;;;;;;;7.67;89.39;96274.81;5080789;28;20223;-69
2022/05/02 05:23:11;;;;;;;24.03;9.73;;;;;;;8.14;87.83;96268.91;5076326;28;20242;-69
2022/05/02 05:25:44;;;;;;;21.87;9.47;;;;;;;8.18;89.00;96265.78;5080529;28;20253;-69
2022/05/02 05:28:27;;;;;;;27.80;10.40;;;;;;;8.45;88.86;96275.19;5080083;28;20199;-69
2022/05/02 05:31:11;;;;;;;20.57;10.13;;;;;;;8.55;88.07;96277.50;5080016;28;20227;-69
2022/05/02 05:33:49;;;;;;;22.83;11.27;;;;;;;8.71;87.80;96277.47;5079262;28;20227;-69
2022/05/02 05:36:25;;;;;;;28.30;11.97;;;;;;;8.90;89.19;96282.41;5080037;28;20727;-69
2022/05/02 05:38:58;;;;;;;30.40;12.60;;;;;;;9.03;89.13;96277.47;5079647;28;20226;-69
2022/05/02 05:41:36;;;;;;;31.17;13.63;;;;;;;9.15;89.07;96276.13;5080586;28;20204;-68
2022/05/02 05:44:15;;;;;;;30.40;13.90;;;;;;;9.41;88.94;96276.72;5078942;28;20209;-68
2022/05/02 05:47:07;;;;;;;28.27;13.40;;;;;;;9.64;88.43;96261.84;5080082;28;20709;-69
2022/05/02 05:49:48;;;;;;;27.37;13.63;;;;;;;9.73;88.84;96267.72;5078877;28;20228;-69
2022/05/02 05:52:20;;;;;;;32.33;15.50;;;;;;;9.77;88.40;96262.94;5079435;28;21002;-69
2022/05/02 05:55:00;;;;;;;36.20;15.23;;;;;;;9.80;88.19;96267.84;5079501;28;20246;-69
2022/05/02 05:57:36;;;;;;;30.43;14.43;;;;;;;9.79;88.61;96269.66;5079453;28;20199;-69
2022/05/02 06:00:07;;;;;;;26.80;13.47;;;;;;;10.00;88.98;96263.84;5079744;28;20243;-69
2022/05/02 06:02:47;;;;;;;28.97;12.83;;;;;;;10.27;88.13;96261.53;5079020;28;20204;-69
2022/05/02 06:05:15;;;;;;;29.43;13.67;;;;;;;10.16;89.58;96259.31;5078847;28;20225;-68
2022/05/02 06:07:43;;;;;;;34.60;14.03;;;;;;;10.03;89.62;96264.31;5079081;28;20211;-69
2022/05/02 06:10:10;;;;;;;33.87;13.03;;;;;;;10.24;89.58;96267.16;5078504;28;20750;-69
2022/05/02 06:12:39;;;;;;;29.33;13.83;;;;;;;10.19;88.42;96264.22;5078335;28;20238;-69
2022/05/02 06:20:39;;;;;;;32.87;13.70;;;;;;;10.38;86.27;96263.78;5077488;28;20277;-69
2022/05/02 06:23:08;;;;;;;28.33;12.90;;;;;;;10.56;86.34;96265.09;5074060;28;20292;-69
2022/05/02 06:25:37;;;;;;;33.57;13.97;;;;;;;10.65;86.01;96265.88;5078327;28;20199;-69
2022/05/02 06:28:04;;;;;;;32.53;14.27;;;;;;;10.57;86.45;96263.31;5078230;28;20204;-69
2022/05/02 06:30:32;;;;;;;32.13;13.80;;;;;;;10.63;86.68;96273.16;5079781;28;20218;-68
2022/05/02 06:33:02;;;;;;;33.47;13.03;;;;;;;10.85;85.43;96267.03;5077840;28;20235;-68
2022/05/02 06:35:36;;;;;;;28.13;13.37;;;;;;;10.99;85.34;96269.69;5078607;28;20706;-69
2022/05/02 06:38:12;;;;;;;29.30;14.00;;;;;;;10.90;85.53;96269.97;5079071;28;20199;-69
2022/05/02 06:40:50;;;;;;;26.50;13.93;;;;;;;11.06;86.13;96271.44;5078579;28;20219;-69
2022/05/02 06:43:25;;;;;;;32.37;14.37;;;;;;;11.10;86.10;96271.91;5077135;28;20574;-69
2022/05/02 06:46:00;;;;;;;30.03;13.53;;;;;;;11.50;85.70;96263.63;5078443;28;20499;-69
2022/05/02 06:48:37;;;;;;;28.43;13.20;;;;;;;11.50;84.41;96264.44;5078481;28;20207;-68
2022/05/02 06:51:06;;;;;;;28.27;13.97;;;;;;;11.47;85.44;96267.41;5078134;28;20235;-69
2022/05/02 06:53:57;;;;;;;26.87;13.60;;;;;;;11.76;85.17;96265.63;5077605;28;20219;-69
2022/05/02 06:56:34;;;;;;;30.60;14.57;;;;;;;11.86;84.98;96263.50;5077566;28;20251;-69
2022/05/02 06:59:07;;;;;;;36.37;15.50;;;;;;;11.81;84.73;96257.13;5078058;28;20235;-69
2022/05/02 07:01:46;;;;;;;33.63;15.50;;;;;;;11.73;86.08;96259.88;5078245;28;20204;-68
2022/05/02 07:04:20;;;;;;;33.33;15.50;;;;;;;12.37;83.71;96257.19;5077424;28;20652;-70
2022/05/02 07:07:02;;;;;;;33.87;15.40;;;;;;;12.45;84.20;96247.31;5077684;28;20462;-70
2022/05/02 07:09:37;;;;;;;36.20;15.67;;;;;;;12.47;87.10;96249.78;5077835;28;20223;-70
2022/05/02 07:12:12;;;;;;;33.23;15.50;;;;;;;12.56;86.01;96246.00;5077590;28;20210;-70
2022/05/02 07:15:02;;;;;;;35.97;17.47;;;;;;;12.88;85.62;96248.97;5077291;28;20223;-70
2022/05/02 07:17:45;;;;;;;37.80;17.07;;;;;;;12.77;84.79;96244.97;5077970;28;20572;-70
2022/05/02 07:20:17;;;;;;;35.70;18.23;;;;;;;13.14;85.20;96243.91;5076413;28;20216;-70
2022/05/02 07:22:47;;;;;;;37.27;17.30;;;;;;;13.21;83.16;96239.47;5072239;28;20387;-70
2022/05/02 07:25:21;;;;;;;40.87;18.90;;;;;;;13.45;82.93;96238.03;5075954;28;20196;-70
2022/05/02 07:27:57;;;;;;;43.33;20.50;;;;;;;13.73;83.69;96240.59;5077251;28;20231;-70
2022/05/02 07:30:25;;;;;;;42.63;19.75;;;;;;;13.48;83.26;96242.91;5075909;28;20222;-70
2022/05/02 07:32:53;;;;;;;44.57;20.03;;;;;;;13.86;82.77;96241.50;5076088;28;20224;-70
2022/05/02 07:35:21;;;;;;;46.13;20.27;;;;;;;13.87;81.70;96237.81;5077120;28;20204;-67
2022/05/02 07:37:48;;;;;;;41.17;19.73;;;;;;;14.26;82.40;96244.13;5076860;28;20576;-68
2022/05/02 07:40:19;;;;;;;43.53;20.73;;;;;;;14.46;82.63;96239.72;5076558;28;20977;-68
2022/05/02 07:42:46;;;;;;;43.03;19.55;;;;;;;14.38;80.39;96236.41;5077043;28;20246;-68
2022/05/02 07:45:17;;;;;;;46.40;20.80;;;;;;;14.85;80.42;96237.91;5076282;28;20199;-68
2022/05/02 07:47:47;;;;;;;41.28;19.33;;;;;;;14.85;77.66;96239.75;5076487;28;20259;-68
2022/05/02 07:50:14;;;;;;;41.40;19.10;;;;;;;14.93;78.39;96240.41;5076686;28;20227;-68
2022/05/02 07:52:44;;;;;;;39.70;18.83;;;;;;;15.18;77.92;96236.09;5075732;28;20251;-68
2022/05/02 07:55:11;;;;;;;42.63;19.25;;;;;;;15.28;78.22;96236.53;5076394;28;20204;-67
2022/05/02 07:57:42;;;;;;;38.90;18.95;;;;;;;15.26;76.49;96235.91;5076797;28;20719;-68
2022/05/02 08:00:12;;;;;;;36.38;17.75;;;;;;;15.54;74.38;96241.81;5076432;28;20216;-67
2022/05/02 08:02:39;;;;;;;38.20;17.17;;;;;;;15.08;77.57;96235.69;5075561;28;20195;-68
2022/05/02 08:05:06;;;;;;;35.50;17.08;;;;;;;14.92;79.21;96245.91;5076521;28;20219;-68
2022/05/02 08:07:35;;;;;;;37.85;18.52;;;;;;;15.30;75.08;96237.97;5076412;28;20204;-68
2022/05/02 08:10:45;;;;;;;37.90;17.23;;;;;;;15.44;78.32;96242.25;5075857;28;20226;-68
2022/05/02 08:13:37;;;;;;;36.80;17.45;;;;;;;15.84;74.88;96248.28;5013003;28;20221;-68
2022/05/02 08:16:06;;;;;;;35.95;15.82;;;;;;;15.67;70.86;96244.44;5077385;28;20634;-68
2022/05/02 08:19:19;;;;;;;34.95;16.90;;;;;;;15.91;73.34;96239.25;5076288;28;20719;-68
2022/05/02 08:21:50;;;;;;;35.50;17.65;;;;;;;16.35;74.25;96239.31;5034209;28;20201;-68
2022/05/02 08:27:43;;;;;;;34.10;17.20;;;;;;;16.51;70.98;96242.31;5076449;28;20211;-68
2022/05/02 08:30:17;;;;;;;38.63;18.23;;;;;;;16.46;71.18;96244.78;5077097;28;20247;-68
2022/05/02 08:32:56;;;;;;;34.38;16.45;;;;;;;16.67;71.25;96242.59;5074819;28;20292;-68
2022/05/02 08:35:33;;;;;;;35.75;17.40;;;;;;;16.63;68.70;96241.41;5074715;28;20468;-68
2022/05/02 08:38:18;;;;;;;35.80;16.98;;;;;;;16.34;72.33;96238.50;5075503;28;20391;-68
2022/05/02 08:41:24;;;;;;;33.58;16.13;;;;;;;16.83;68.71;96235.97;5076504;28;20223;-68
2022/05/02 08:44:46;;;;;;;36.40;15.95;;;;;;;17.31;70.50;96230.69;5076347;28;20199;-68
2022/05/02 08:47:54;;;;;;;31.38;15.50;;;;;;;17.46;68.22;96227.69;5052135;28;20389;-68
2022/05/02 08:50:29;;;;;;;33.92;14.68;;;;;;;17.42;66.72;96226.50;5075727;28;20246;-68
2022/05/02 08:53:29;;;;;;;32.70;16.10;;;;;;;17.52;67.17;96224.97;5076704;28;20215;-69
2022/05/02 08:56:25;;;;;;;34.78;17.88;;;;;;;17.52;67.69;96224.97;5020676;28;20200;-68
2022/05/02 08:59:22;;;;;;;34.20;17.38;;;;;;;17.16;69.66;96232.84;5076346;28;20210;-68
2022/05/02 09:02:23;;;;;;;39.38;18.10;;;;;;;17.64;69.58;96225.06;5077126;28;20290;-69
2022/05/02 09:05:38;;;;;;;32.97;16.25;;;;;;;17.51;67.92;96220.66;5076213;28;20222;-68
2022/05/02 09:08:57;;;;;;;34.05;17.33;;;;;;;17.07;69.96;96221.84;5033329;28;20262;-68
2022/05/02 09:11:37;;;;;;;30.13;15.57;;;;;;;17.43;69.28;96228.94;5033671;28;20206;-69
2022/05/02 09:14:39;;;;;;;31.17;15.25;;;;;;;17.33;67.34;96223.28;5070375;28;20591;-68
2022/05/02 09:17:57;;;;;;;31.67;14.40;;;;;;;17.93;67.34;96215.28;5075382;28;20210;-69
2022/05/02 09:20:58;;;;;;;27.02;13.63;;;;;;;18.26;68.05;96220.28;5074942;28;20231;-69
2022/05/02 09:24:04;;;;;;;29.20;14.85;;;;;;;17.93;65.09;96215.28;5073691;28;20188;-68
2022/05/02 09:27:08;;;;;;;26.48;13.93;;;;;;;18.01;63.70;96211.50;5079109;28;20200;-68
2022/05/02 09:30:11;;;;;;;26.00;13.90;;;;;;;17.44;68.46;96227.13;5078940;28;20215;-68
2022/05/02 09:32:46;;;;;;;26.65;14.18;;;;;;;17.56;67.05;96225.34;5077991;28;20287;-69
2022/05/02 09:35:17;;;;;;;24.27;13.05;;;;;;;17.80;65.14;96226.09;5079460;28;20235;-69
2022/05/02 09:37:58;;;;;;;24.20;13.07;;;;;;;17.00;67.37;96223.75;5078761;28;20683;-68
2022/05/02 09:40:35;;;;;;;24.35;13.07;;;;;;;17.58;66.82;96213.44;5078817;28;20316;-69
2022/05/02 09:49:33;;;;;;;23.98;12.73;;;;;;;17.47;66.34;96216.81;5077430;28;20227;-68
2022/05/02 09:49:34;;;;;;;22.40;11.75;;;;;;;17.21;68.67;96214.38;5078218;28;20637;-69
2022/05/02 09:52:04;;;;;;;21.58;11.43;;;;;;;17.68;64.91;96213.75;5078971;28;20297;-68
2022/05/02 09:58:03;;;;;;;22.75;12.45;;;;;;;17.75;65.75;96206.47;5078438;28;20211;-69
2022/05/02 10:03:36;;;;;;;23.55;12.65;;;;;;;17.81;64.30;96194.94;5078009;28;20203;-68
2022/05/02 10:06:05;;;;;;;21.10;12.30;;;;;;;17.48;64.33;96193.66;5078200;28;20204;-69
2022/05/02 10:08:55;;;;;;;25.58;13.13;;;;;;;17.62;67.65;96195.97;5078978;28;20230;-69
2022/05/02 10:11:35;;;;;;;26.05;12.57;;;;;;;18.32;62.56;96185.50;5074663;28;21028;-68
2022/05/02 10:14:27;;;;;;;23.85;12.40;;;;;;;18.60;60.10;96189.22;5078060;28;20277;-69
2022/05/02 10:17:01;;;;;;;24.27;12.35;;;;;;;18.92;62.78;96182.56;5079725;28;20200;-69
2022/05/02 10:19:48;;;;;;;29.83;15.27;;;;;;;19.34;60.42;96173.47;5078832;28;20223;-69
2022/05/02 10:22:27;;;;;;;26.27;14.25;;;;;;;19.03;60.08;96182.59;5075638;28;20207;-69
2022/05/02 10:25:11;;;;;;;23.95;11.77;;;;;;;19.80;60.72;96180.38;5079364;28;20576;-69
2022/05/02 10:27:55;;;;;;;20.30;10.80;;;;;;;19.71;57.49;96171.09;5078561;28;20204;-69
2022/05/02 10:30:22;;;;;;;22.60;10.80;;;;;;;19.66;60.24;96168.31;5077915;28;20633;-69
2022/05/02 10:32:55;;;;;;;23.63;11.18;;;;;;;19.65;57.53;96166.72;5078969;28;20207;-69
2022/05/02 10:35:23;;;;;;;19.83;10.38;;;;;;;19.47;57.74;96173.22;5078230;28;20223;-69
2022/05/02 10:37:57;;;;;;;17.00;10.48;;;;;;;18.84;57.80;96172.22;5077038;28;20587;-69
2022/05/02 10:40:34;;;;;;;18.48;9.68;;;;;;;19.58;57.23;96159.88;5077340;28;20225;-69
2022/05/02 10:43:04;;;;;;;17.13;9.93;;;;;;;19.51;59.24;96164.50;5078033;28;20230;-69
2022/05/02 10:45:33;;;;;;;19.40;10.90;;;;;;;19.46;60.23;96167.06;5078047;28;20256;-69
2022/05/02 10:48:11;;;;;;;18.95;10.65;;;;;;;19.79;57.09;96168.09;5077962;28;21242;-69
2022/05/02 10:50:38;;;;;;;20.77;10.25;;;;;;;20.19;54.74;96163.59;5078298;28;20310;-69
2022/05/02 10:53:37;;;;;;;18.25;10.32;;;;;;;20.29;52.87;96158.44;5076975;28;20204;-69
2022/05/02 10:56:19;;;;;;;20.52;9.82;;;;;;;20.50;54.82;96157.78;5078218;28;20203;-69
2022/05/02 10:58:48;;;;;;;18.55;10.48;;;;;;;20.45;55.02;96163.03;5077636;28;20235;-69
2022/05/02 11:01:30;;;;;;;18.88;9.30;;;;;;;20.03;56.80;96158.97;5077480;28;20226;-69
2022/05/02 11:04:08;;;;;;;18.02;9.70;;;;;;;20.39;58.00;96150.59;5077903;28;20288;-69
2022/05/02 11:06:45;;;;;;;16.10;9.30;;;;;;;20.80;53.00;96151.13;5077996;28;20203;-69
2022/05/02 11:09:14;;;;;;;16.63;9.65;;;;;;;20.92;53.10;96149.97;5078202;28;20219;-70
2022/05/02 11:11:47;;;;;;;15.02;9.10;;;;;;;21.19;55.91;96147.47;5077277;28;20679;-69
2022/05/02 11:14:30;;;;;;;15.75;8.93;;;;;;;21.60;52.43;96139.81;5077892;28;20247;-69
2022/05/02 11:17:01;;;;;;;14.05;8.32;;;;;;;20.75;54.09;96144.84;5077610;28;20192;-69
2022/05/02 11:22:26;;;;;;;15.75;8.93;;;;;;;20.39;55.03;96139.88;5073706;28;20260;-69
2022/05/02 11:25:06;;;;;;;18.42;8.60;;;;;;;20.26;56.91;96137.50;5076087;28;20682;-69
2022/05/02 11:27:56;;;;;;;14.32;8.80;;;;;;;20.33;55.94;96133.63;5076658;28;20206;-69
2022/05/02 11:30:28;;;;;;;16.10;9.13;;;;;;;20.61;53.99;96135.47;5076789;28;20227;-69
2022/05/02 11:33:05;;;;;;;14.15;8.75;;;;;;;20.85;56.01;96133.28;5074583;28;20199;-69
2022/05/02 11:35:33;;;;;;;17.08;9.52;;;;;;;20.12;57.27;96133.47;5076498;28;20223;-69
2022/05/02 11:38:07;;;;;;;16.30;9.68;;;;;;;20.34;53.87;96134.44;5076378;28;20214;-69
2022/05/02 11:40:47;;;;;;;15.95;8.80;;;;;;;20.74;53.50;96125.31;5076177;28;20246;-71
2022/05/02 11:43:15;;;;;;;13.18;7.85;;;;;;;20.44;51.41;96130.09;5075248;28;20223;-69
2022/05/02 11:45:45;;;;;;;13.07;7.03;;;;;;;20.69;52.69;96127.06;5077014;28;20192;-69
2022/05/02 11:48:35;;;;;;;14.88;7.95;;;;;;;20.75;53.56;96128.78;5075935;28;20231;-69
2022/05/02 11:51:04;;;;;;;14.60;7.93;;;;;;;21.06;50.87;96112.97;5076150;28;20239;-70
2022/05/02 11:53:35;;;;;;;16.65;8.68;;;;;;;21.70;53.97;96110.44;5075521;28;20252;-69
2022/05/02 11:56:04;;;;;;;17.15;7.68;;;;;;;21.97;50.00;96112.16;5076623;28;20208;-69
2022/05/02 11:58:38;;;;;;;16.48;8.15;;;;;;;22.14;50.17;96107.53;5075988;28;20257;-69
2022/05/02 12:01:10;;;;;;;12.80;7.88;;;;;;;21.80;48.39;96116.75;5077487;28;20243;-69
2022/05/02 12:03:53;;;;;;;13.48;8.32;;;;;;;21.58;49.52;96112.44;5076094;28;20203;-69
2022/05/02 12:06:29;;;;;;;18.88;10.35;;;;;;;20.92;52.45;96117.84;5077093;28;20269;-69
2022/05/02 12:08:57;;;;;;;18.20;10.50;;;;;;;21.34;51.28;96116.34;5077111;28;20199;-69
2022/05/02 12:11:23;;;;;;;11.98;8.00;;;;;;;20.65;51.84;96116.00;5076784;28;20203;-69
2022/05/02 12:13:53;;;;;;;15.93;8.90;;;;;;;20.25;51.57;96119.81;5072704;28;20199;-69
2022/05/02 12:16:21;;;;;;;14.60;8.88;;;;;;;20.19;55.47;96115.44;5076994;28;20679;-69
2022/05/02 12:18:49;;;;;;;18.42;8.68;;;;;;;20.11;54.44;96123.03;5076758;28;20602;-69
2022/05/02 12:21:21;;;;;;;14.32;8.05;;;;;;;19.92;54.59;96124.22;5076541;28;20228;-69
2022/05/02 12:23:50;;;;;;;16.38;8.13;;;;;;;20.02;53.95;96119.94;5076247;28;20202;-69
2022/05/02 12:26:19;;;;;;;11.65;7.75;;;;;;;19.65;55.81;96113.25;5077165;28;20206;-69
2022/05/02 12:28:48;;;;;;;13.40;7.50;;;;;;;19.54;58.01;96115.94;5076329;28;20196;-69